<?xml version="1.0" encoding="utf-8"?>
<gpx xmlns:xsi="http://www.w3.org/2001/XMLSchema-instance" xmlns:xsd="http://www.w3.org/2001/XMLSchema" version="1.1" creator="Shapelink.com" xmlns="http://www.topografix.com/GPX/1/1" xmlns:gpxtpx="http://www.garmin.com/xmlschemas/TrackPointExtension/v1">
  <metadata>
    <name>Övrigt 1.66 km, 2020-06-23</name>
    <desc></desc>
    <author><name>Marian Moron</name></author> 
    <time>2020-06-23T20:05:42Z</time>
  </metadata>
  <trk>
    <name>Övrigt 1.66 km, 2020-06-23</name>
    <trkseg>
      <trkpt lat="51.230381425491" lon="4.45918169647">
        <ele>0</ele>
        <time>2020-06-23T20:05:42Z</time>
      </trkpt>
      <trkpt lat="51.230336330869" lon="4.458891095997">
        <ele>0</ele>
        <time>2020-06-23T20:05:57Z</time>
      </trkpt>
      <trkpt lat="51.230300372518" lon="4.458844827909">
        <ele>0</ele>
        <time>2020-06-23T20:06:01Z</time>
      </trkpt>
      <trkpt lat="51.229996528643" lon="4.458820101304">
        <ele>0</ele>
        <time>2020-06-23T20:06:29Z</time>
      </trkpt>
      <trkpt lat="51.229960151197" lon="4.458150806589">
        <ele>0</ele>
        <time>2020-06-23T20:07:07Z</time>
      </trkpt>
      <trkpt lat="51.229866190098" lon="4.45800152495">
        <ele>0</ele>
        <time>2020-06-23T20:07:17Z</time>
      </trkpt>
      <trkpt lat="51.229723446341" lon="4.458004458615">
        <ele>0</ele>
        <time>2020-06-23T20:07:37Z</time>
      </trkpt>
      <trkpt lat="51.229638202418" lon="4.457828773991">
        <ele>35.6</ele>
        <time>2020-06-23T20:24:11Z</time>
      </trkpt>
      <trkpt lat="51.229387918884" lon="4.458032118885">
        <ele>7.2</ele>
        <time>2020-06-23T20:24:29Z</time>
      </trkpt>
      <trkpt lat="51.229333101258" lon="4.458067155227">
        <ele>5.4</ele>
        <time>2020-06-23T20:24:57Z</time>
      </trkpt>
      <trkpt lat="51.229224052739" lon="4.458086433597">
        <ele>5.4</ele>
        <time>2020-06-23T20:25:11Z</time>
      </trkpt>
      <trkpt lat="51.228779895858" lon="4.458230099363">
        <ele>10</ele>
        <time>2020-06-23T20:25:49Z</time>
      </trkpt>
      <trkpt lat="51.228570851272" lon="4.458598986782">
        <ele>9.8</ele>
        <time>2020-06-23T20:26:30Z</time>
      </trkpt>
      <trkpt lat="51.228571605643" lon="4.458690098035">
        <ele>10</ele>
        <time>2020-06-23T20:26:34Z</time>
      </trkpt>
      <trkpt lat="51.228604881786" lon="4.458782969487">
        <ele>11.4</ele>
        <time>2020-06-23T20:26:51Z</time>
      </trkpt>
      <trkpt lat="51.228625752717" lon="4.458907356883">
        <ele>11.6</ele>
        <time>2020-06-23T20:27:03Z</time>
      </trkpt>
      <trkpt lat="51.228587531253" lon="4.459098548022">
        <ele>12</ele>
        <time>2020-06-23T20:27:11Z</time>
      </trkpt>
      <trkpt lat="51.228448056437" lon="4.459718557165">
        <ele>12.8</ele>
        <time>2020-06-23T20:27:45Z</time>
      </trkpt>
      <trkpt lat="51.22840505729" lon="4.45998552068">
        <ele>10</ele>
        <time>2020-06-23T20:28:35Z</time>
      </trkpt>
      <trkpt lat="51.228396507752" lon="4.460353150814">
        <ele>10.4</ele>
        <time>2020-06-23T20:28:57Z</time>
      </trkpt>
      <trkpt lat="51.228486696996" lon="4.460472341432">
        <ele>9.8</ele>
        <time>2020-06-23T20:29:15Z</time>
      </trkpt>
      <trkpt lat="51.228767658284" lon="4.460689348823">
        <ele>19.4</ele>
        <time>2020-06-23T20:29:59Z</time>
      </trkpt>
      <trkpt lat="51.228741087661" lon="4.460519112434">
        <ele>44.4</ele>
        <time>2020-06-23T20:30:12Z</time>
      </trkpt>
      <trkpt lat="51.228894476431" lon="4.460473431079">
        <ele>41.2</ele>
        <time>2020-06-23T20:30:23Z</time>
      </trkpt>
      <trkpt lat="51.229341818434" lon="4.460398664531">
        <ele>25</ele>
        <time>2020-06-23T20:30:57Z</time>
      </trkpt>
      <trkpt lat="51.229367047953" lon="4.460441579859">
        <ele>22.6</ele>
        <time>2020-06-23T20:31:00Z</time>
      </trkpt>
      <trkpt lat="51.229533093392" lon="4.460962431125">
        <ele>2.2</ele>
        <time>2020-06-23T20:31:44Z</time>
      </trkpt>
      <trkpt lat="51.229665359774" lon="4.461093440222">
        <ele>2.6</ele>
        <time>2020-06-23T20:32:02Z</time>
      </trkpt>
      <trkpt lat="51.229922265009" lon="4.461653937875">
        <ele>8.8</ele>
        <time>2020-06-23T20:32:45Z</time>
      </trkpt>
      <trkpt lat="51.229948919451" lon="4.461790730483">
        <ele>4.2</ele>
        <time>2020-06-23T20:33:03Z</time>
      </trkpt>
      <trkpt lat="51.230061236911" lon="4.462215357537">
        <ele>4.2</ele>
        <time>2020-06-23T20:33:49Z</time>
      </trkpt>
      <trkpt lat="51.230073725942" lon="4.462385929202">
        <ele>7.4</ele>
        <time>2020-06-23T20:34:05Z</time>
      </trkpt>
      <trkpt lat="51.230123849704" lon="4.462862691674">
        <ele>8.6</ele>
        <time>2020-06-23T20:34:59Z</time>
      </trkpt>
      <trkpt lat="51.230034833926" lon="4.463028401837">
        <ele>8</ele>
        <time>2020-06-23T20:35:23Z</time>
      </trkpt>
      <trkpt lat="51.229949254727" lon="4.463030245855">
        <ele>6.6</ele>
        <time>2020-06-23T20:35:34Z</time>
      </trkpt>
      <trkpt lat="51.22980315821" lon="4.46302479762">
        <ele>6.4</ele>
        <time>2020-06-23T20:36:10Z</time>
      </trkpt>
      <trkpt lat="51.22958271424" lon="4.463030329674">
        <ele>5.2</ele>
        <time>2020-06-23T20:36:34Z</time>
      </trkpt>
      <trkpt lat="51.229402587209" lon="4.463067042396">
        <ele>1</ele>
        <time>2020-06-23T20:37:21Z</time>
      </trkpt>
      <trkpt lat="51.229376100405" lon="4.463071317165">
        <ele>0.8</ele>
        <time>2020-06-23T20:37:24Z</time>
      </trkpt>
      <trkpt lat="51.228999334" lon="4.46306922169">
        <ele>66</ele>
        <time>2020-06-23T20:38:43Z</time>
      </trkpt>
      <trkpt lat="51.229033448333" lon="4.463342136354">
        <ele>22.2</ele>
        <time>2020-06-23T20:39:06Z</time>
      </trkpt>
      <trkpt lat="51.228737483444" lon="4.463524275041">
        <ele>4.4</ele>
        <time>2020-06-23T20:41:06Z</time>
      </trkpt>
      <trkpt lat="51.22872776044" lon="4.463524023584">
        <ele>4.2</ele>
        <time>2020-06-23T20:41:07Z</time>
      </trkpt>
      <trkpt lat="51.228520978967" lon="4.463494686934">
        <ele>3.6</ele>
        <time>2020-06-23T20:42:17Z</time>
      </trkpt>
      <trkpt lat="51.228164161484" lon="4.463185394824">
        <ele>12.6</ele>
        <time>2020-06-23T20:43:40Z</time>
      </trkpt>
      <trkpt lat="51.228140943621" lon="4.463144994066">
        <ele>11.2</ele>
        <time>2020-06-23T20:43:43Z</time>
      </trkpt>
      <trkpt lat="51.227867358405" lon="4.462738304278">
        <ele>2.8</ele>
        <time>2020-06-23T20:44:29Z</time>
      </trkpt>
      <trkpt lat="51.227836680651" lon="4.46203908618">
        <ele>5.8</ele>
        <time>2020-06-23T20:45:19Z</time>
      </trkpt>
      <trkpt lat="51.22780658963" lon="4.461330396535">
        <ele>8</ele>
        <time>2020-06-23T20:46:09Z</time>
      </trkpt>
      <trkpt lat="51.227824107801" lon="4.461174241738">
        <ele>11.2</ele>
        <time>2020-06-23T20:46:21Z</time>
      </trkpt>
      <trkpt lat="51.227868364233" lon="4.460506204308">
        <ele>5</ele>
        <time>2020-06-23T20:47:13Z</time>
      </trkpt>
      <trkpt lat="51.227877249047" lon="4.460499917883">
        <ele>5.2</ele>
        <time>2020-06-23T20:47:14Z</time>
      </trkpt>
      <trkpt lat="51.227903652032" lon="4.460484914282">
        <ele>5.6</ele>
        <time>2020-06-23T20:47:17Z</time>
      </trkpt>
      <trkpt lat="51.228286453405" lon="4.460268577443">
        <ele>11</ele>
        <time>2020-06-23T20:48:02Z</time>
      </trkpt>
      <trkpt lat="51.228307575793" lon="4.460101945271">
        <ele>9</ele>
        <time>2020-06-23T20:48:07Z</time>
      </trkpt>
      <trkpt lat="51.228368093111" lon="4.459820732526">
        <ele>7.4</ele>
        <time>2020-06-23T20:48:29Z</time>
      </trkpt>
      <trkpt lat="51.228511339782" lon="4.45914733068">
        <ele>2.8</ele>
        <time>2020-06-23T20:49:14Z</time>
      </trkpt>
      <trkpt lat="51.228471022843" lon="4.458707113292">
        <ele>0</ele>
        <time>2020-06-23T20:49:48Z</time>
      </trkpt>
      <trkpt lat="51.228515530732" lon="4.458319282779">
        <ele>0</ele>
        <time>2020-06-23T20:50:15Z</time>
      </trkpt>
      <trkpt lat="51.22865148515" lon="4.458234122675">
        <ele>2.8</ele>
        <time>2020-06-23T20:50:32Z</time>
      </trkpt>
      <trkpt lat="51.229090277615" lon="4.458078889887">
        <ele>15.4</ele>
        <time>2020-06-23T20:51:20Z</time>
      </trkpt>
      <trkpt lat="51.229442401234" lon="4.457964141676">
        <ele>17.4</ele>
        <time>2020-06-23T20:52:25Z</time>
      </trkpt>
      <trkpt lat="51.229706347265" lon="4.457906222747">
        <ele>16.6</ele>
        <time>2020-06-23T20:53:10Z</time>
      </trkpt>
    </trkseg>
  </trk>
</gpx>